createdAt,value
2023-04-16T00:01:58.529Z,16.50
2023-04-16T00:04:25.598Z,16.50
2023-04-16T00:06:52.443Z,16.50
2023-04-16T00:09:19.160Z,16.50
2023-04-16T00:11:45.891Z,16.50
2023-04-16T00:14:12.612Z,16.50
2023-04-16T00:16:39.381Z,16.50
2023-04-16T00:19:06.080Z,16.50
2023-04-16T00:21:32.845Z,16.50
2023-04-16T00:23:59.585Z,16.50
2023-04-16T00:26:26.261Z,16.50
2023-04-16T00:28:53.674Z,16.50
2023-04-16T00:31:27.694Z,16.50
2023-04-16T00:33:56.285Z,16.50
2023-04-16T00:36:27.851Z,16.50
2023-04-16T00:38:56.033Z,16.50
2023-04-16T00:41:23.444Z,16.50
2023-04-16T00:43:50.606Z,16.50
2023-04-16T00:46:19.732Z,16.50
2023-04-16T00:48:47.215Z,16.50
2023-04-16T00:51:14.045Z,16.50
2023-04-16T00:53:41.545Z,16.50
2023-04-16T00:56:09.017Z,16.50
2023-04-16T00:58:35.980Z,16.50
2023-04-16T01:01:02.893Z,16.50
2023-04-16T01:03:45.313Z,16.50
2023-04-16T01:06:12.523Z,16.40
2023-04-16T01:08:39.653Z,16.50
2023-04-16T01:11:06.878Z,16.50
2023-04-16T01:13:33.969Z,16.40
2023-04-16T01:16:01.358Z,16.50
2023-04-16T01:18:28.179Z,16.40
2023-04-16T01:20:54.861Z,16.40
2023-04-16T01:23:22.519Z,16.50
2023-04-16T01:25:49.321Z,16.50
2023-04-16T01:28:16.477Z,16.50
2023-04-16T01:30:43.675Z,16.50
2023-04-16T01:33:36.486Z,16.50
2023-04-16T01:36:03.465Z,16.50
2023-04-16T01:38:30.478Z,16.50
2023-04-16T01:40:59.444Z,16.50
2023-04-16T01:43:26.213Z,16.40
2023-04-16T01:45:59.430Z,16.40
2023-04-16T01:48:26.222Z,16.50
2023-04-16T01:50:52.955Z,16.40
2023-04-16T01:53:19.648Z,16.40
2023-04-16T01:55:46.381Z,16.40
2023-04-16T01:58:14.767Z,16.40
2023-04-16T02:00:41.698Z,16.40
2023-04-16T02:03:08.560Z,16.40
2023-04-16T02:05:35.579Z,16.40
2023-04-16T02:08:02.350Z,16.40
2023-04-16T02:10:30.453Z,16.40
2023-04-16T02:12:57.809Z,16.40
2023-04-16T02:15:25.323Z,16.40
2023-04-16T02:17:56.675Z,16.40
2023-04-16T02:20:24.796Z,16.40
2023-04-16T02:22:55.235Z,16.40
2023-04-16T02:25:24.272Z,16.40
2023-04-16T02:27:53.245Z,16.40
2023-04-16T02:30:37.883Z,16.50
2023-04-16T02:33:07.314Z,16.40
2023-04-16T02:35:35.585Z,16.40
2023-04-16T02:38:03.332Z,16.50
2023-04-16T02:40:30.690Z,16.50
2023-04-16T02:42:57.995Z,16.40
2023-04-16T02:45:25.303Z,16.40
2023-04-16T02:47:52.206Z,16.40
2023-04-16T02:50:18.993Z,16.40
2023-04-16T02:52:45.957Z,16.40
2023-04-16T02:55:12.743Z,16.40
2023-04-16T02:57:39.775Z,16.40
2023-04-16T03:00:07.317Z,16.40
2023-04-16T03:02:34.296Z,16.40
2023-04-16T03:05:01.238Z,16.40
2023-04-16T03:07:27.980Z,16.40
2023-04-16T03:09:54.718Z,16.40
2023-04-16T03:12:21.493Z,16.40
2023-04-16T03:14:50.211Z,16.40
2023-04-16T03:17:16.912Z,16.40
2023-04-16T03:19:43.693Z,16.40
2023-04-16T03:22:10.446Z,16.40
2023-04-16T03:24:38.227Z,16.40
2023-04-16T03:27:04.989Z,16.40
2023-04-16T03:29:31.950Z,16.40
2023-04-16T03:31:58.753Z,16.40
2023-04-16T03:34:26.665Z,16.30
2023-04-16T03:36:53.434Z,16.30
2023-04-16T03:39:20.570Z,16.30
2023-04-16T03:41:47.414Z,16.30
2023-04-16T03:44:14.516Z,16.40
2023-04-16T03:46:41.868Z,16.40
2023-04-16T03:49:08.902Z,16.30
2023-04-16T03:51:35.839Z,16.40
2023-04-16T03:54:02.943Z,16.30
2023-04-16T03:56:29.882Z,16.30
2023-04-16T03:58:56.721Z,16.30
2023-04-16T04:01:23.554Z,16.30
2023-04-16T04:03:52.126Z,16.40
2023-04-16T04:06:19.030Z,16.30
2023-04-16T04:08:45.785Z,16.30
2023-04-16T04:11:13.814Z,16.30
2023-04-16T04:13:41.406Z,16.30
2023-04-16T04:16:08.408Z,16.30
2023-04-16T04:18:35.157Z,16.40
2023-04-16T04:21:06.307Z,16.40
2023-04-16T04:23:33.980Z,16.30
2023-04-16T04:26:03.730Z,16.40
2023-04-16T04:28:31.361Z,16.40
2023-04-16T04:30:59.556Z,16.40
2023-04-16T04:33:26.617Z,16.40
2023-04-16T04:35:54.350Z,16.30
2023-04-16T04:38:22.323Z,16.30
2023-04-16T04:40:49.765Z,16.30
2023-04-16T04:43:19.813Z,16.40
2023-04-16T04:45:46.751Z,16.30
2023-04-16T04:48:13.838Z,16.30
2023-04-16T04:50:41.472Z,16.30
2023-04-16T04:53:11.548Z,16.30
2023-04-16T04:55:39.094Z,16.30
2023-04-16T04:58:06.885Z,16.30
2023-04-16T05:00:34.729Z,16.30
2023-04-16T05:03:09.688Z,16.30
2023-04-16T05:05:36.664Z,16.30
2023-04-16T05:08:03.569Z,16.30
2023-04-16T05:10:30.355Z,16.30
2023-04-16T05:12:57.122Z,16.30
2023-04-16T05:15:23.903Z,16.30
2023-04-16T05:17:50.699Z,16.30
2023-04-16T05:20:17.494Z,16.30
2023-04-16T05:22:44.285Z,16.30
2023-04-16T05:25:11.023Z,16.30
2023-04-16T05:27:38.335Z,16.30
2023-04-16T05:30:05.743Z,16.40
2023-04-16T05:32:32.673Z,16.30
2023-04-16T05:34:59.601Z,16.30
2023-04-16T05:37:26.394Z,16.30
2023-04-16T05:39:53.197Z,16.30
2023-04-16T05:42:20.087Z,16.30
2023-04-16T05:44:46.828Z,16.30
2023-04-16T05:47:13.631Z,16.30
2023-04-16T05:49:40.528Z,16.30
2023-04-16T05:52:07.509Z,16.30
2023-04-16T05:54:34.310Z,16.30
2023-04-16T05:57:01.926Z,16.30
2023-04-16T05:59:29.341Z,16.30
2023-04-16T06:01:56.773Z,16.30
2023-04-16T06:04:23.666Z,16.30
2023-04-16T06:06:50.667Z,16.30
2023-04-16T06:09:18.315Z,16.30
2023-04-16T06:11:45.540Z,16.30
2023-04-16T06:14:12.310Z,16.40
2023-04-16T06:16:39.219Z,16.40
2023-04-16T06:19:06.030Z,16.40
2023-04-16T06:21:33.464Z,16.50
2023-04-16T06:24:00.742Z,16.50
2023-04-16T06:26:27.527Z,16.60
2023-04-16T06:28:54.354Z,16.60
2023-04-16T06:31:21.161Z,16.70
2023-04-16T06:33:48.176Z,16.70
2023-04-16T06:36:15.092Z,16.80
2023-04-16T06:38:41.990Z,16.80
2023-04-16T06:41:08.998Z,16.80
2023-04-16T06:43:36.088Z,16.80
2023-04-16T06:46:02.836Z,16.80
2023-04-16T06:48:30.077Z,16.80
2023-04-16T06:50:56.933Z,16.90
2023-04-16T06:53:24.168Z,16.90
2023-04-16T06:55:51.390Z,16.90
2023-04-16T06:58:18.152Z,17.00
2023-04-16T07:00:45.500Z,17.00
2023-04-16T07:03:12.582Z,17.10
2023-04-16T07:05:39.443Z,17.10
2023-04-16T07:08:06.264Z,17.10
2023-04-16T07:10:33.085Z,17.10
2023-04-16T07:13:01.607Z,17.10
2023-04-16T07:15:29.207Z,17.20
2023-04-16T07:17:56.017Z,17.20
2023-04-16T07:20:22.936Z,17.20
2023-04-16T07:22:49.872Z,17.20
2023-04-16T07:25:16.681Z,17.20
2023-04-16T07:27:43.478Z,17.20
2023-04-16T07:30:10.726Z,17.20
2023-04-16T07:32:37.842Z,17.30
2023-04-16T07:35:04.971Z,17.30
2023-04-16T07:37:31.805Z,17.30
2023-04-16T07:39:59.871Z,17.30
2023-04-16T07:42:28.176Z,17.30
2023-04-16T07:44:55.655Z,17.30
2023-04-16T07:47:23.246Z,17.30
2023-04-16T07:49:50.662Z,17.30
2023-04-16T07:52:17.483Z,17.30
2023-04-16T07:54:44.263Z,17.40
2023-04-16T07:57:12.248Z,17.40
2023-04-16T07:59:39.010Z,17.40
2023-04-16T08:02:06.293Z,17.50
2023-04-16T08:04:33.399Z,17.50
2023-04-16T08:07:00.558Z,17.50
2023-04-16T08:09:28.539Z,17.50
2023-04-16T08:11:55.468Z,17.50
2023-04-16T08:14:22.210Z,17.60
2023-04-16T08:16:49.441Z,17.60
2023-04-16T08:19:16.181Z,17.60
2023-04-16T08:21:43.299Z,17.60
2023-04-16T08:24:10.212Z,17.60
2023-04-16T08:26:37.010Z,17.60
2023-04-16T08:29:03.772Z,17.70
2023-04-16T08:31:30.717Z,17.70
2023-04-16T08:33:57.534Z,17.70
2023-04-16T08:36:24.277Z,17.70
2023-04-16T08:38:52.275Z,17.70
2023-04-16T08:41:21.727Z,17.70
2023-04-16T08:43:51.083Z,17.70
2023-04-16T08:46:18.190Z,17.70
2023-04-16T08:48:49.104Z,17.70
2023-04-16T08:51:19.355Z,17.80
2023-04-16T08:53:53.235Z,17.80
2023-04-16T08:56:24.569Z,17.80
2023-04-16T08:58:54.757Z,17.80
2023-04-16T09:01:22.221Z,17.80
2023-04-16T09:03:49.902Z,17.90
2023-04-16T09:06:17.473Z,17.90
2023-04-16T09:08:46.202Z,17.90
2023-04-16T09:11:18.166Z,17.90
2023-04-16T09:13:46.999Z,17.90
2023-04-16T09:16:14.944Z,18.00
2023-04-16T09:18:41.890Z,18.00
2023-04-16T09:21:10.817Z,18.00
2023-04-16T09:23:38.753Z,18.10
2023-04-16T09:26:06.213Z,18.00
2023-04-16T09:28:39.970Z,18.10
2023-04-16T09:31:12.813Z,18.10
2023-04-16T09:33:39.695Z,18.10
2023-04-16T09:36:07.580Z,18.20
2023-04-16T09:38:51.331Z,18.20
2023-04-16T09:41:19.025Z,18.20
2023-04-16T09:44:04.309Z,18.20
2023-04-16T09:46:36.406Z,18.20
2023-04-16T09:49:17.158Z,18.30
2023-04-16T09:51:56.020Z,18.20
2023-04-16T09:54:22.815Z,18.30
2023-04-16T09:56:49.558Z,18.30
2023-04-16T09:59:20.504Z,18.30
2023-04-16T10:01:49.326Z,18.30
2023-04-16T10:04:16.938Z,18.30
2023-04-16T10:06:44.157Z,18.30
2023-04-16T10:09:11.312Z,18.30
2023-04-16T10:11:39.371Z,18.30
2023-04-16T10:14:06.236Z,18.40
2023-04-16T10:16:33.896Z,18.40
2023-04-16T10:19:00.917Z,18.40
2023-04-16T10:21:33.832Z,18.40
2023-04-16T10:24:01.782Z,18.40
2023-04-16T10:26:30.564Z,18.40
2023-04-16T10:28:58.679Z,18.40
2023-04-16T10:31:27.226Z,18.40
2023-04-16T10:33:54.445Z,18.40
2023-04-16T10:36:24.874Z,18.50
2023-04-16T10:38:52.692Z,18.50
2023-04-16T10:41:22.510Z,18.50
2023-04-16T10:43:52.870Z,18.50
2023-04-16T10:46:26.857Z,18.50
2023-04-16T10:48:55.318Z,18.40
2023-04-16T10:51:32.985Z,18.40
2023-04-16T10:54:08.679Z,18.40
2023-04-16T10:56:36.730Z,18.50
2023-04-16T10:59:11.339Z,18.50
2023-04-16T11:01:43.639Z,18.50
2023-04-16T11:04:19.617Z,18.50
2023-04-16T11:07:05.587Z,18.50
2023-04-16T11:09:54.451Z,18.50
2023-04-16T11:12:37.319Z,18.50
2023-04-16T11:15:09.570Z,18.50
2023-04-16T11:17:46.711Z,18.50
2023-04-16T11:20:23.711Z,18.50
2023-04-16T11:22:51.838Z,18.50
2023-04-16T11:25:31.827Z,18.50
2023-04-16T11:28:01.728Z,18.50
2023-04-16T11:30:36.400Z,18.50
2023-04-16T11:33:03.693Z,18.50
2023-04-16T11:35:31.101Z,18.50
2023-04-16T11:37:58.092Z,18.40
2023-04-16T11:40:25.305Z,18.40
2023-04-16T11:42:52.064Z,18.40
2023-04-16T11:45:19.498Z,18.40
2023-04-16T11:47:52.156Z,18.50
2023-04-16T11:50:26.280Z,18.50
2023-04-16T11:52:54.999Z,18.50
2023-04-16T11:55:23.098Z,18.50
2023-04-16T11:57:51.315Z,18.50
2023-04-16T12:00:19.145Z,18.50
2023-04-16T12:02:55.325Z,18.50
2023-04-16T12:05:34.713Z,18.50
2023-04-16T12:08:03.364Z,18.50
2023-04-16T12:10:36.567Z,18.50
2023-04-16T12:13:14.512Z,18.50
2023-04-16T12:15:59.413Z,18.50
2023-04-16T12:18:29.357Z,18.60
2023-04-16T12:20:56.304Z,18.60
2023-04-16T12:23:25.240Z,18.70
2023-04-16T12:25:52.753Z,18.70
2023-04-16T12:28:34.203Z,18.70
2023-04-16T12:31:02.375Z,18.70
2023-04-16T12:33:29.800Z,18.70
2023-04-16T12:35:56.849Z,18.70
2023-04-16T12:38:24.610Z,18.70
2023-04-16T12:40:52.009Z,18.70
2023-04-16T12:43:22.112Z,18.70
2023-04-16T12:45:49.405Z,18.70
2023-04-16T12:48:16.237Z,18.70
2023-04-16T12:50:44.265Z,18.70
2023-04-16T12:53:11.644Z,18.70
2023-04-16T12:55:38.487Z,18.70
2023-04-16T12:58:05.339Z,18.70
2023-04-16T13:00:32.758Z,18.70
2023-04-16T13:02:59.688Z,18.70
2023-04-16T13:05:27.199Z,18.70
2023-04-16T13:07:54.212Z,18.70
2023-04-16T13:10:22.236Z,18.60
2023-04-16T13:12:49.178Z,18.70
2023-04-16T13:15:16.139Z,18.70
2023-04-16T13:17:42.985Z,18.70
2023-04-16T13:20:10.530Z,18.80
2023-04-16T13:22:37.554Z,18.80
2023-04-16T13:25:05.016Z,18.80
2023-04-16T13:27:32.557Z,18.80
2023-04-16T13:29:59.346Z,18.80
2023-04-16T13:32:26.422Z,18.80
2023-04-16T13:34:53.358Z,18.90
2023-04-16T13:37:20.252Z,18.80
2023-04-16T13:39:47.329Z,18.90
2023-04-16T13:42:14.153Z,18.90
2023-04-16T13:44:41.068Z,18.90
2023-04-16T13:47:08.114Z,18.90
2023-04-16T13:49:36.174Z,19.00
2023-04-16T13:52:03.576Z,18.90
2023-04-16T13:54:30.435Z,19.00
2023-04-16T13:56:57.280Z,19.00
2023-04-16T13:59:24.078Z,19.00
2023-04-16T14:01:51.500Z,19.00
2023-04-16T14:04:18.611Z,19.00
2023-04-16T14:06:45.557Z,19.00
2023-04-16T14:09:12.496Z,19.00
2023-04-16T14:11:39.492Z,19.10
2023-04-16T14:14:06.491Z,19.10
2023-04-16T14:16:35.147Z,19.10
2023-04-16T14:19:01.963Z,19.10
2023-04-16T14:21:28.773Z,19.10
2023-04-16T14:23:55.853Z,19.20
2023-04-16T14:26:22.902Z,19.20
2023-04-16T14:28:51.028Z,19.20
2023-04-16T14:31:18.080Z,19.20
2023-04-16T14:33:44.914Z,19.30
2023-04-16T14:36:11.867Z,19.30
2023-04-16T14:38:38.759Z,19.30
2023-04-16T14:41:05.803Z,19.20
2023-04-16T14:43:32.621Z,19.20
2023-04-16T14:45:59.962Z,19.20
2023-04-16T14:48:26.784Z,19.20
2023-04-16T14:50:53.991Z,19.20
2023-04-16T14:53:23.121Z,19.20
2023-04-16T14:55:49.908Z,19.20
2023-04-16T14:58:16.746Z,19.20
2023-04-16T15:00:43.475Z,19.20
2023-04-16T15:03:10.365Z,19.10
2023-04-16T15:05:37.253Z,19.10
2023-04-16T15:08:05.461Z,19.20
2023-04-16T15:10:32.775Z,19.20
2023-04-16T15:12:59.526Z,19.20
2023-04-16T15:15:26.357Z,19.20
2023-04-16T15:17:53.245Z,19.20
2023-04-16T15:20:20.138Z,19.30
2023-04-16T15:22:46.962Z,19.30
2023-04-16T15:25:14.461Z,19.30
2023-04-16T15:27:41.301Z,19.40
2023-04-16T15:30:08.756Z,19.30
2023-04-16T15:32:35.849Z,19.40
2023-04-16T15:35:03.558Z,19.40
2023-04-16T15:37:30.941Z,19.40
2023-04-16T15:39:57.906Z,19.40
2023-04-16T15:42:24.949Z,19.40
2023-04-16T15:44:51.695Z,19.40
2023-04-16T15:47:18.531Z,19.40
2023-04-16T15:49:45.548Z,19.40
2023-04-16T15:52:12.520Z,19.40
2023-04-16T15:54:39.385Z,19.40
2023-04-16T15:57:06.429Z,19.40
2023-04-16T15:59:33.345Z,19.40
2023-04-16T16:02:01.065Z,19.40
2023-04-16T16:04:28.272Z,19.40
2023-04-16T16:06:56.287Z,19.40
2023-04-16T16:09:26.505Z,19.40
2023-04-16T16:11:54.439Z,19.40
2023-04-16T16:14:22.277Z,19.40
2023-04-16T16:16:49.050Z,19.40
2023-04-16T16:19:15.843Z,19.40
2023-04-16T16:21:43.210Z,19.40
2023-04-16T16:24:09.957Z,19.40
2023-04-16T16:26:36.734Z,19.30
2023-04-16T16:29:03.710Z,19.30
2023-04-16T16:31:31.909Z,19.30
2023-04-16T16:33:58.796Z,19.30
2023-04-16T16:36:26.120Z,19.30
2023-04-16T16:38:52.976Z,19.30
2023-04-16T16:41:19.776Z,19.20
2023-04-16T16:43:46.664Z,19.20
2023-04-16T16:46:13.604Z,19.20
2023-04-16T16:48:40.462Z,19.20
2023-04-16T16:51:10.569Z,19.10
2023-04-16T16:53:37.347Z,19.10
2023-04-16T16:56:04.291Z,19.10
2023-04-16T16:58:31.476Z,19.10
2023-04-16T17:00:58.801Z,19.00
2023-04-16T17:03:26.153Z,19.00
2023-04-16T17:05:53.150Z,19.00
2023-04-16T17:08:19.940Z,19.00
2023-04-16T17:10:46.834Z,19.00
2023-04-16T17:13:15.127Z,19.00
2023-04-16T17:15:42.103Z,19.00
2023-04-16T17:18:08.911Z,19.00
2023-04-16T17:20:35.755Z,19.00
2023-04-16T17:23:03.024Z,18.90
2023-04-16T17:25:29.961Z,19.00
2023-04-16T17:27:56.691Z,18.90
2023-04-16T17:30:25.840Z,18.90
2023-04-16T17:32:52.724Z,18.90
2023-04-16T17:35:19.724Z,18.80
2023-04-16T17:37:46.466Z,18.80
2023-04-16T17:40:15.455Z,18.80
2023-04-16T17:42:42.646Z,18.80
2023-04-16T17:45:09.716Z,18.80
2023-04-16T17:47:36.655Z,18.80
2023-04-16T17:50:04.524Z,18.80
2023-04-16T17:52:31.357Z,18.80
2023-04-16T17:55:01.267Z,18.80
2023-04-16T17:57:28.490Z,18.70
2023-04-16T17:59:55.486Z,18.70
2023-04-16T18:02:22.715Z,18.60
2023-04-16T18:04:49.742Z,18.50
2023-04-16T18:07:16.841Z,18.50
2023-04-16T18:09:43.694Z,18.40
2023-04-16T18:12:10.453Z,18.40
2023-04-16T18:14:38.800Z,18.30
2023-04-16T18:17:06.474Z,18.30
2023-04-16T18:19:33.585Z,18.20
2023-04-16T18:22:00.671Z,18.20
2023-04-16T18:24:27.593Z,18.10
2023-04-16T18:26:55.314Z,18.00
2023-04-16T18:29:25.089Z,18.00
2023-04-16T18:31:52.483Z,17.90
2023-04-16T18:34:19.443Z,17.90
2023-04-16T18:36:46.329Z,17.90
2023-04-16T18:39:13.213Z,17.80
2023-04-16T18:41:40.884Z,17.80
2023-04-16T18:44:07.828Z,17.80
2023-04-16T18:46:34.660Z,17.80
2023-04-16T18:49:01.548Z,17.70
2023-04-16T18:51:28.485Z,17.70
2023-04-16T18:53:55.616Z,17.70
2023-04-16T18:56:22.376Z,17.70
2023-04-16T18:58:49.544Z,17.60
2023-04-16T19:01:16.643Z,17.60
2023-04-16T19:03:43.565Z,17.60
2023-04-16T19:06:10.505Z,17.60
2023-04-16T19:08:37.266Z,17.50
2023-04-16T19:11:04.104Z,17.50
2023-04-16T19:13:32.256Z,17.50
2023-04-16T19:16:00.403Z,17.50
2023-04-16T19:18:27.379Z,17.50
2023-04-16T19:21:01.150Z,17.50
2023-04-16T19:23:28.466Z,17.40
2023-04-16T19:25:57.011Z,17.40
2023-04-16T19:28:24.804Z,17.40
2023-04-16T19:30:52.452Z,17.30
2023-04-16T19:33:19.704Z,17.30
2023-04-16T19:35:47.051Z,17.30
2023-04-16T19:38:14.063Z,17.30
2023-04-16T19:40:43.507Z,17.30
2023-04-16T19:43:10.365Z,17.30
2023-04-16T19:45:53.166Z,17.20
2023-04-16T19:48:20.503Z,17.20
2023-04-16T19:50:47.765Z,17.20
2023-04-16T19:53:14.609Z,17.20
2023-04-16T19:55:41.944Z,17.20
2023-04-16T19:58:09.631Z,17.20
2023-04-16T20:00:37.788Z,17.20
2023-04-16T20:03:05.551Z,17.20
2023-04-16T20:05:32.560Z,17.10
2023-04-16T20:07:59.544Z,17.10
2023-04-16T20:10:27.055Z,17.10
2023-04-16T20:12:53.803Z,17.10
2023-04-16T20:15:20.848Z,17.10
2023-04-16T20:17:47.710Z,17.10
2023-04-16T20:20:15.866Z,17.10
2023-04-16T20:22:43.717Z,17.10
2023-04-16T20:25:10.842Z,17.10
2023-04-16T20:27:37.877Z,17.10
2023-04-16T20:30:06.277Z,17.10
2023-04-16T20:32:33.238Z,17.00
2023-04-16T20:35:00.213Z,17.00
2023-04-16T20:37:28.977Z,17.00
2023-04-16T20:39:56.276Z,17.00
2023-04-16T20:42:26.124Z,17.00
2023-04-16T20:44:56.479Z,17.00
2023-04-16T20:47:23.849Z,16.90
2023-04-16T20:49:52.784Z,16.90
2023-04-16T20:52:20.085Z,16.90
2023-04-16T20:54:47.674Z,16.90
2023-04-16T20:57:14.638Z,16.90
2023-04-16T20:59:41.475Z,16.90
2023-04-16T21:02:08.359Z,16.90
2023-04-16T21:04:35.423Z,16.90
2023-04-16T21:07:04.193Z,16.90
2023-04-16T21:09:31.460Z,16.90
2023-04-16T21:11:58.351Z,16.80
2023-04-16T21:14:25.238Z,16.80
2023-04-16T21:16:52.146Z,16.80
2023-04-16T21:19:18.993Z,16.80
2023-04-16T21:21:45.907Z,16.80
2023-04-16T21:24:12.667Z,16.90
2023-04-16T21:26:39.440Z,16.80
2023-04-16T21:29:06.330Z,16.80
2023-04-16T21:31:33.166Z,16.80
2023-04-16T21:34:00.016Z,16.80
2023-04-16T21:36:27.726Z,16.80
2023-04-16T21:38:54.475Z,16.80
2023-04-16T21:41:21.241Z,16.80
2023-04-16T21:43:47.973Z,16.80
2023-04-16T21:46:14.849Z,16.80
2023-04-16T21:48:41.648Z,16.80
2023-04-16T21:51:08.624Z,16.80
2023-04-16T21:53:35.443Z,16.70
2023-04-16T21:56:02.387Z,16.80
2023-04-16T21:58:29.288Z,16.70
2023-04-16T22:00:56.286Z,16.70
2023-04-16T22:03:28.066Z,16.70
2023-04-16T22:06:01.663Z,16.70
2023-04-16T22:08:32.032Z,16.70
2023-04-16T22:10:59.885Z,16.70
2023-04-16T22:13:28.270Z,16.70
2023-04-16T22:15:55.171Z,16.70
2023-04-16T22:18:24.278Z,16.70
2023-04-16T22:20:54.773Z,16.70
2023-04-16T22:23:25.719Z,16.70
2023-04-16T22:25:54.608Z,16.60
2023-04-16T22:28:21.542Z,16.60
2023-04-16T22:30:48.628Z,16.60
2023-04-16T22:33:15.613Z,16.60
2023-04-16T22:35:42.530Z,16.60
2023-04-16T22:38:10.028Z,16.60
2023-04-16T22:40:36.819Z,16.60
2023-04-16T22:43:03.573Z,16.60
2023-04-16T22:45:30.378Z,16.60
2023-04-16T22:47:57.156Z,16.60
2023-04-16T22:50:23.936Z,16.60
2023-04-16T22:52:50.698Z,16.60
2023-04-16T22:55:17.449Z,16.60
2023-04-16T22:57:44.172Z,16.60
2023-04-16T23:00:15.861Z,16.60
2023-04-16T23:02:43.227Z,16.60
2023-04-16T23:05:10.735Z,16.60
2023-04-16T23:07:37.659Z,16.60
2023-04-16T23:10:04.850Z,16.60
2023-04-16T23:12:31.588Z,16.60
2023-04-16T23:14:59.914Z,16.60
2023-04-16T23:17:27.128Z,16.50
2023-04-16T23:19:53.900Z,16.50
2023-04-16T23:22:20.760Z,16.50
2023-04-16T23:24:47.465Z,16.50
2023-04-16T23:27:14.242Z,16.50
2023-04-16T23:29:41.058Z,16.50
2023-04-16T23:32:07.819Z,16.50
2023-04-16T23:34:34.609Z,16.50
2023-04-16T23:37:01.394Z,16.50
2023-04-16T23:39:28.106Z,16.50
2023-04-16T23:41:54.880Z,16.50
2023-04-16T23:44:21.600Z,16.50
2023-04-16T23:46:48.468Z,16.50
2023-04-16T23:49:15.339Z,16.50
2023-04-16T23:51:42.078Z,16.50
2023-04-16T23:54:08.875Z,16.50
2023-04-16T23:56:35.614Z,16.40
2023-04-16T23:59:02.418Z,16.50
